sensor_id;sensor_type;location;lat;lon;timestamp;P1;durP1;ratioP1;P2;durP2;ratioP2
22080;SDS011;11207;59.512;18.050;2023-02-15T00:00:53;10.13;;;7.30;;
22080;SDS011;11207;59.512;18.050;2023-02-15T00:03:20;9.03;;;7.23;;
22080;SDS011;11207;59.512;18.050;2023-02-15T00:05:46;10.20;;;7.77;;
22080;SDS011;11207;59.512;18.050;2023-02-15T00:08:11;10.87;;;7.23;;
22080;SDS011;11207;59.512;18.050;2023-02-15T00:10:37;10.37;;;7.63;;
22080;SDS011;11207;59.512;18.050;2023-02-15T00:13:02;9.93;;;7.00;;
22080;SDS011;11207;59.512;18.050;2023-02-15T00:15:28;8.17;;;7.10;;
22080;SDS011;11207;59.512;18.050;2023-02-15T00:17:54;11.17;;;7.53;;
22080;SDS011;11207;59.512;18.050;2023-02-15T00:20:21;11.93;;;7.93;;
22080;SDS011;11207;59.512;18.050;2023-02-15T00:22:47;12.20;;;7.73;;
22080;SDS011;11207;59.512;18.050;2023-02-15T00:25:12;9.90;;;7.07;;
22080;SDS011;11207;59.512;18.050;2023-02-15T00:27:38;13.93;;;7.53;;
22080;SDS011;11207;59.512;18.050;2023-02-15T00:30:03;11.30;;;6.80;;
22080;SDS011;11207;59.512;18.050;2023-02-15T00:32:30;12.30;;;8.50;;
22080;SDS011;11207;59.512;18.050;2023-02-15T00:34:57;8.20;;;6.70;;
22080;SDS011;11207;59.512;18.050;2023-02-15T00:37:23;12.23;;;7.60;;
22080;SDS011;11207;59.512;18.050;2023-02-15T00:39:48;11.73;;;7.67;;
22080;SDS011;11207;59.512;18.050;2023-02-15T00:42:14;9.90;;;7.07;;
22080;SDS011;11207;59.512;18.050;2023-02-15T00:44:39;10.00;;;7.20;;
22080;SDS011;11207;59.512;18.050;2023-02-15T00:47:05;12.50;;;7.20;;
22080;SDS011;11207;59.512;18.050;2023-02-15T00:49:31;9.63;;;7.40;;
22080;SDS011;11207;59.512;18.050;2023-02-15T00:51:57;10.53;;;7.17;;
22080;SDS011;11207;59.512;18.050;2023-02-15T00:54:26;8.17;;;7.03;;
22080;SDS011;11207;59.512;18.050;2023-02-15T00:56:53;10.83;;;6.80;;
22080;SDS011;11207;59.512;18.050;2023-02-15T00:59:19;10.80;;;7.33;;
22080;SDS011;11207;59.512;18.050;2023-02-15T01:01:44;10.27;;;6.60;;
22080;SDS011;11207;59.512;18.050;2023-02-15T01:04:10;13.40;;;7.07;;
22080;SDS011;11207;59.512;18.050;2023-02-15T01:06:35;9.77;;;6.97;;
22080;SDS011;11207;59.512;18.050;2023-02-15T01:09:01;8.63;;;6.73;;
22080;SDS011;11207;59.512;18.050;2023-02-15T01:11:27;14.97;;;6.87;;
22080;SDS011;11207;59.512;18.050;2023-02-15T01:13:56;10.93;;;6.90;;
22080;SDS011;11207;59.512;18.050;2023-02-15T01:16:23;10.77;;;6.47;;
22080;SDS011;11207;59.512;18.050;2023-02-15T01:18:50;7.43;;;6.60;;
22080;SDS011;11207;59.512;18.050;2023-02-15T01:21:17;9.33;;;6.70;;
22080;SDS011;11207;59.512;18.050;2023-02-15T01:23:44;9.40;;;6.63;;
22080;SDS011;11207;59.512;18.050;2023-02-15T01:26:10;10.63;;;6.80;;
22080;SDS011;11207;59.512;18.050;2023-02-15T01:28:37;8.93;;;6.47;;
22080;SDS011;11207;59.512;18.050;2023-02-15T01:31:10;6.87;;;6.00;;
22080;SDS011;11207;59.512;18.050;2023-02-15T01:33:40;9.70;;;6.87;;
22080;SDS011;11207;59.512;18.050;2023-02-15T01:36:06;9.63;;;7.07;;
22080;SDS011;11207;59.512;18.050;2023-02-15T01:38:32;20.97;;;7.43;;
22080;SDS011;11207;59.512;18.050;2023-02-15T01:40:59;9.53;;;6.80;;
22080;SDS011;11207;59.512;18.050;2023-02-15T01:43:47;10.47;;;7.10;;
22080;SDS011;11207;59.512;18.050;2023-02-15T01:46:27;8.00;;;6.80;;
22080;SDS011;11207;59.512;18.050;2023-02-15T01:49:01;11.57;;;7.73;;
22080;SDS011;11207;59.512;18.050;2023-02-15T01:51:31;9.83;;;6.90;;
22080;SDS011;11207;59.512;18.050;2023-02-15T01:54:45;12.60;;;7.07;;
22080;SDS011;11207;59.512;18.050;2023-02-15T01:56:49;12.30;;;7.37;;
22080;SDS011;11207;59.512;18.050;2023-02-15T01:59:16;9.27;;;7.30;;
22080;SDS011;11207;59.512;18.050;2023-02-15T02:01:46;7.40;;;6.57;;
22080;SDS011;11207;59.512;18.050;2023-02-15T02:04:15;10.97;;;7.40;;
22080;SDS011;11207;59.512;18.050;2023-02-15T02:06:46;13.50;;;6.53;;
22080;SDS011;11207;59.512;18.050;2023-02-15T02:09:12;8.93;;;6.87;;
22080;SDS011;11207;59.512;18.050;2023-02-15T02:11:39;11.70;;;7.33;;
22080;SDS011;11207;59.512;18.050;2023-02-15T02:14:06;10.97;;;7.47;;
22080;SDS011;11207;59.512;18.050;2023-02-15T02:16:40;10.70;;;7.20;;
22080;SDS011;11207;59.512;18.050;2023-02-15T02:30:51;9.67;;;7.10;;
22080;SDS011;11207;59.512;18.050;2023-02-15T02:33:41;11.47;;;7.40;;
22080;SDS011;11207;59.512;18.050;2023-02-15T02:36:31;14.93;;;7.77;;
22080;SDS011;11207;59.512;18.050;2023-02-15T02:44:57;12.00;;;7.23;;
22080;SDS011;11207;59.512;18.050;2023-02-15T02:47:48;8.27;;;6.80;;
22080;SDS011;11207;59.512;18.050;2023-02-15T02:50:24;11.20;;;7.00;;
22080;SDS011;11207;59.512;18.050;2023-02-15T02:52:53;11.10;;;7.17;;
22080;SDS011;11207;59.512;18.050;2023-02-15T02:55:37;10.03;;;7.20;;
22080;SDS011;11207;59.512;18.050;2023-02-15T02:58:13;9.77;;;7.57;;
22080;SDS011;11207;59.512;18.050;2023-02-15T03:00:56;10.20;;;6.93;;
22080;SDS011;11207;59.512;18.050;2023-02-15T03:03:42;9.07;;;7.10;;
22080;SDS011;11207;59.512;18.050;2023-02-15T03:06:16;12.33;;;7.17;;
22080;SDS011;11207;59.512;18.050;2023-02-15T03:08:47;12.53;;;7.33;;
22080;SDS011;11207;59.512;18.050;2023-02-15T03:11:16;8.17;;;6.30;;
22080;SDS011;11207;59.512;18.050;2023-02-15T03:13:43;10.80;;;7.57;;
22080;SDS011;11207;59.512;18.050;2023-02-15T03:16:10;12.50;;;7.87;;
22080;SDS011;11207;59.512;18.050;2023-02-15T03:18:54;16.20;;;8.00;;
22080;SDS011;11207;59.512;18.050;2023-02-15T03:21:41;13.37;;;7.47;;
22080;SDS011;11207;59.512;18.050;2023-02-15T03:24:24;9.23;;;7.50;;
22080;SDS011;11207;59.512;18.050;2023-02-15T03:26:54;13.30;;;7.70;;
22080;SDS011;11207;59.512;18.050;2023-02-15T03:29:22;9.47;;;7.47;;
22080;SDS011;11207;59.512;18.050;2023-02-15T03:31:53;14.07;;;7.90;;
22080;SDS011;11207;59.512;18.050;2023-02-15T03:34:23;10.60;;;7.33;;
22080;SDS011;11207;59.512;18.050;2023-02-15T03:42:26;10.63;;;7.60;;
22080;SDS011;11207;59.512;18.050;2023-02-15T03:45:08;12.17;;;7.37;;
22080;SDS011;11207;59.512;18.050;2023-02-15T03:47:37;10.47;;;7.60;;
22080;SDS011;11207;59.512;18.050;2023-02-15T03:50:18;12.27;;;7.77;;
22080;SDS011;11207;59.512;18.050;2023-02-15T03:53:09;14.33;;;8.37;;
22080;SDS011;11207;59.512;18.050;2023-02-15T03:55:38;13.73;;;8.30;;
22080;SDS011;11207;59.512;18.050;2023-02-15T03:58:04;12.77;;;8.03;;
22080;SDS011;11207;59.512;18.050;2023-02-15T04:00:54;13.53;;;8.60;;
22080;SDS011;11207;59.512;18.050;2023-02-15T04:03:49;10.33;;;7.77;;
22080;SDS011;11207;59.512;18.050;2023-02-15T04:06:24;13.10;;;8.03;;
22080;SDS011;11207;59.512;18.050;2023-02-15T04:08:49;10.97;;;7.83;;
22080;SDS011;11207;59.512;18.050;2023-02-15T04:11:33;13.13;;;7.60;;
22080;SDS011;11207;59.512;18.050;2023-02-15T04:13:59;10.53;;;7.43;;
22080;SDS011;11207;59.512;18.050;2023-02-15T04:16:45;11.10;;;7.33;;
22080;SDS011;11207;59.512;18.050;2023-02-15T04:19:10;11.90;;;8.33;;
22080;SDS011;11207;59.512;18.050;2023-02-15T04:21:54;12.07;;;8.60;;
22080;SDS011;11207;59.512;18.050;2023-02-15T04:24:38;14.60;;;8.87;;
22080;SDS011;11207;59.512;18.050;2023-02-15T04:27:22;11.70;;;7.53;;
22080;SDS011;11207;59.512;18.050;2023-02-15T04:29:48;13.33;;;7.57;;
22080;SDS011;11207;59.512;18.050;2023-02-15T04:32:14;11.90;;;8.97;;
22080;SDS011;11207;59.512;18.050;2023-02-15T04:34:40;10.77;;;7.97;;
22080;SDS011;11207;59.512;18.050;2023-02-15T04:37:06;11.63;;;8.10;;
22080;SDS011;11207;59.512;18.050;2023-02-15T04:39:31;13.87;;;8.43;;
22080;SDS011;11207;59.512;18.050;2023-02-15T04:41:57;13.23;;;8.80;;
22080;SDS011;11207;59.512;18.050;2023-02-15T04:44:23;15.10;;;9.30;;
22080;SDS011;11207;59.512;18.050;2023-02-15T04:46:48;15.47;;;9.00;;
22080;SDS011;11207;59.512;18.050;2023-02-15T04:49:14;11.43;;;7.67;;
22080;SDS011;11207;59.512;18.050;2023-02-15T04:51:40;14.33;;;9.77;;
22080;SDS011;11207;59.512;18.050;2023-02-15T04:54:05;13.83;;;8.30;;
22080;SDS011;11207;59.512;18.050;2023-02-15T04:56:31;12.10;;;8.60;;
22080;SDS011;11207;59.512;18.050;2023-02-15T04:58:58;15.80;;;9.27;;
22080;SDS011;11207;59.512;18.050;2023-02-15T05:01:24;14.33;;;9.30;;
22080;SDS011;11207;59.512;18.050;2023-02-15T05:03:50;13.63;;;9.10;;
22080;SDS011;11207;59.512;18.050;2023-02-15T05:06:15;15.23;;;9.87;;
22080;SDS011;11207;59.512;18.050;2023-02-15T05:08:41;17.07;;;8.70;;
22080;SDS011;11207;59.512;18.050;2023-02-15T05:11:06;14.93;;;9.00;;
22080;SDS011;11207;59.512;18.050;2023-02-15T05:13:32;19.10;;;9.10;;
22080;SDS011;11207;59.512;18.050;2023-02-15T05:15:57;13.47;;;9.70;;
22080;SDS011;11207;59.512;18.050;2023-02-15T05:18:23;12.47;;;8.90;;
22080;SDS011;11207;59.512;18.050;2023-02-15T05:20:48;14.83;;;9.50;;
22080;SDS011;11207;59.512;18.050;2023-02-15T05:23:14;11.57;;;8.57;;
22080;SDS011;11207;59.512;18.050;2023-02-15T05:25:40;15.20;;;9.40;;
22080;SDS011;11207;59.512;18.050;2023-02-15T05:28:26;15.60;;;9.23;;
22080;SDS011;11207;59.512;18.050;2023-02-15T05:31:02;13.20;;;9.10;;
22080;SDS011;11207;59.512;18.050;2023-02-15T05:33:37;14.63;;;9.27;;
22080;SDS011;11207;59.512;18.050;2023-02-15T05:36:03;12.70;;;9.00;;
22080;SDS011;11207;59.512;18.050;2023-02-15T05:38:29;12.23;;;8.70;;
22080;SDS011;11207;59.512;18.050;2023-02-15T05:40:55;13.37;;;8.53;;
22080;SDS011;11207;59.512;18.050;2023-02-15T05:43:21;14.20;;;8.90;;
22080;SDS011;11207;59.512;18.050;2023-02-15T05:45:47;13.27;;;9.33;;
22080;SDS011;11207;59.512;18.050;2023-02-15T05:48:14;15.87;;;10.77;;
22080;SDS011;11207;59.512;18.050;2023-02-15T05:50:40;16.97;;;9.87;;
22080;SDS011;11207;59.512;18.050;2023-02-15T05:53:06;19.30;;;11.87;;
22080;SDS011;11207;59.512;18.050;2023-02-15T05:55:31;27.00;;;15.13;;
22080;SDS011;11207;59.512;18.050;2023-02-15T05:57:57;15.23;;;10.97;;
22080;SDS011;11207;59.512;18.050;2023-02-15T06:00:22;20.23;;;12.20;;
22080;SDS011;11207;59.512;18.050;2023-02-15T06:02:50;15.00;;;10.27;;
22080;SDS011;11207;59.512;18.050;2023-02-15T06:05:16;18.23;;;11.37;;
22080;SDS011;11207;59.512;18.050;2023-02-15T06:07:42;16.93;;;10.47;;
22080;SDS011;11207;59.512;18.050;2023-02-15T06:10:09;15.67;;;9.93;;
22080;SDS011;11207;59.512;18.050;2023-02-15T06:12:35;17.57;;;10.80;;
22080;SDS011;11207;59.512;18.050;2023-02-15T06:15:01;15.13;;;10.30;;
22080;SDS011;11207;59.512;18.050;2023-02-15T06:17:26;17.20;;;10.77;;
22080;SDS011;11207;59.512;18.050;2023-02-15T06:19:52;19.53;;;10.67;;
22080;SDS011;11207;59.512;18.050;2023-02-15T06:22:18;17.80;;;10.87;;
22080;SDS011;11207;59.512;18.050;2023-02-15T06:24:53;16.43;;;10.77;;
22080;SDS011;11207;59.512;18.050;2023-02-15T06:27:19;16.50;;;12.20;;
22080;SDS011;11207;59.512;18.050;2023-02-15T06:29:45;20.50;;;13.37;;
22080;SDS011;11207;59.512;18.050;2023-02-15T06:32:10;19.63;;;12.43;;
22080;SDS011;11207;59.512;18.050;2023-02-15T06:34:36;17.93;;;10.60;;
22080;SDS011;11207;59.512;18.050;2023-02-15T06:37:02;16.73;;;10.10;;
22080;SDS011;11207;59.512;18.050;2023-02-15T06:39:27;17.83;;;11.37;;
22080;SDS011;11207;59.512;18.050;2023-02-15T06:41:53;18.63;;;12.10;;
22080;SDS011;11207;59.512;18.050;2023-02-15T06:44:19;21.63;;;12.37;;
22080;SDS011;11207;59.512;18.050;2023-02-15T06:46:44;16.33;;;10.97;;
22080;SDS011;11207;59.512;18.050;2023-02-15T06:49:10;16.20;;;11.07;;
22080;SDS011;11207;59.512;18.050;2023-02-15T06:51:35;20.80;;;12.23;;
22080;SDS011;11207;59.512;18.050;2023-02-15T06:54:01;20.83;;;10.67;;
22080;SDS011;11207;59.512;18.050;2023-02-15T06:56:27;18.20;;;11.53;;
22080;SDS011;11207;59.512;18.050;2023-02-15T06:58:52;20.30;;;10.93;;
22080;SDS011;11207;59.512;18.050;2023-02-15T07:01:18;17.57;;;10.83;;
22080;SDS011;11207;59.512;18.050;2023-02-15T07:03:44;19.00;;;11.73;;
22080;SDS011;11207;59.512;18.050;2023-02-15T07:06:10;17.13;;;10.70;;
22080;SDS011;11207;59.512;18.050;2023-02-15T07:08:36;18.97;;;11.60;;
22080;SDS011;11207;59.512;18.050;2023-02-15T07:11:03;19.33;;;11.87;;
22080;SDS011;11207;59.512;18.050;2023-02-15T07:13:48;22.07;;;12.00;;
22080;SDS011;11207;59.512;18.050;2023-02-15T07:16:13;22.07;;;12.67;;
22080;SDS011;11207;59.512;18.050;2023-02-15T07:18:39;21.57;;;11.10;;
22080;SDS011;11207;59.512;18.050;2023-02-15T07:21:05;16.97;;;11.20;;
22080;SDS011;11207;59.512;18.050;2023-02-15T07:23:35;15.83;;;10.87;;
22080;SDS011;11207;59.512;18.050;2023-02-15T07:26:02;17.43;;;10.83;;
22080;SDS011;11207;59.512;18.050;2023-02-15T07:28:28;17.80;;;11.07;;
22080;SDS011;11207;59.512;18.050;2023-02-15T07:30:54;16.03;;;10.70;;
22080;SDS011;11207;59.512;18.050;2023-02-15T07:33:20;18.93;;;11.53;;
22080;SDS011;11207;59.512;18.050;2023-02-15T07:35:55;16.10;;;11.03;;
22080;SDS011;11207;59.512;18.050;2023-02-15T07:38:26;16.20;;;10.57;;
22080;SDS011;11207;59.512;18.050;2023-02-15T07:40:59;15.90;;;10.03;;
22080;SDS011;11207;59.512;18.050;2023-02-15T07:43:26;19.77;;;10.80;;
22080;SDS011;11207;59.512;18.050;2023-02-15T07:45:52;15.47;;;10.23;;
22080;SDS011;11207;59.512;18.050;2023-02-15T07:48:18;14.20;;;9.60;;
22080;SDS011;11207;59.512;18.050;2023-02-15T07:50:44;15.93;;;10.40;;
22080;SDS011;11207;59.512;18.050;2023-02-15T07:53:09;15.53;;;10.60;;
22080;SDS011;11207;59.512;18.050;2023-02-15T07:55:35;14.67;;;9.33;;
22080;SDS011;11207;59.512;18.050;2023-02-15T07:58:00;16.50;;;10.07;;
22080;SDS011;11207;59.512;18.050;2023-02-15T08:00:26;14.57;;;9.63;;
22080;SDS011;11207;59.512;18.050;2023-02-15T08:02:52;15.17;;;9.37;;
22080;SDS011;11207;59.512;18.050;2023-02-15T08:05:39;14.87;;;9.77;;
22080;SDS011;11207;59.512;18.050;2023-02-15T08:08:06;16.07;;;10.13;;
22080;SDS011;11207;59.512;18.050;2023-02-15T08:10:33;16.90;;;9.90;;
22080;SDS011;11207;59.512;18.050;2023-02-15T08:13:18;13.97;;;9.17;;
22080;SDS011;11207;59.512;18.050;2023-02-15T08:15:47;14.53;;;8.97;;
22080;SDS011;11207;59.512;18.050;2023-02-15T08:18:14;18.47;;;9.70;;
22080;SDS011;11207;59.512;18.050;2023-02-15T08:20:39;14.63;;;9.57;;
22080;SDS011;11207;59.512;18.050;2023-02-15T08:23:05;12.53;;;8.97;;
22080;SDS011;11207;59.512;18.050;2023-02-15T08:25:30;12.70;;;9.17;;
22080;SDS011;11207;59.512;18.050;2023-02-15T08:27:56;13.03;;;7.80;;
22080;SDS011;11207;59.512;18.050;2023-02-15T08:30:21;11.30;;;8.20;;
22080;SDS011;11207;59.512;18.050;2023-02-15T08:32:47;12.87;;;8.47;;
22080;SDS011;11207;59.512;18.050;2023-02-15T08:35:13;14.37;;;8.50;;
22080;SDS011;11207;59.512;18.050;2023-02-15T08:37:38;11.93;;;8.60;;
22080;SDS011;11207;59.512;18.050;2023-02-15T08:40:04;11.70;;;8.10;;
22080;SDS011;11207;59.512;18.050;2023-02-15T08:42:33;13.77;;;8.87;;
22080;SDS011;11207;59.512;18.050;2023-02-15T08:44:59;12.07;;;8.23;;
22080;SDS011;11207;59.512;18.050;2023-02-15T08:47:25;13.93;;;8.97;;
22080;SDS011;11207;59.512;18.050;2023-02-15T08:49:51;11.60;;;8.30;;
22080;SDS011;11207;59.512;18.050;2023-02-15T08:52:16;13.47;;;9.23;;
22080;SDS011;11207;59.512;18.050;2023-02-15T08:54:42;12.73;;;8.70;;
22080;SDS011;11207;59.512;18.050;2023-02-15T08:57:08;11.33;;;8.27;;
22080;SDS011;11207;59.512;18.050;2023-02-15T08:59:35;11.40;;;8.33;;
22080;SDS011;11207;59.512;18.050;2023-02-15T09:02:01;11.57;;;8.77;;
22080;SDS011;11207;59.512;18.050;2023-02-15T09:04:27;13.00;;;8.73;;
22080;SDS011;11207;59.512;18.050;2023-02-15T09:06:53;12.67;;;8.10;;
22080;SDS011;11207;59.512;18.050;2023-02-15T09:09:20;11.90;;;8.63;;
22080;SDS011;11207;59.512;18.050;2023-02-15T09:11:47;11.10;;;8.63;;
22080;SDS011;11207;59.512;18.050;2023-02-15T09:14:15;11.43;;;8.20;;
22080;SDS011;11207;59.512;18.050;2023-02-15T09:16:44;10.97;;;8.40;;
22080;SDS011;11207;59.512;18.050;2023-02-15T09:19:13;10.63;;;7.80;;
22080;SDS011;11207;59.512;18.050;2023-02-15T09:21:39;16.20;;;9.33;;
22080;SDS011;11207;59.512;18.050;2023-02-15T09:24:07;11.97;;;8.70;;
22080;SDS011;11207;59.512;18.050;2023-02-15T09:26:34;11.20;;;8.27;;
22080;SDS011;11207;59.512;18.050;2023-02-15T09:29:02;12.90;;;8.20;;
22080;SDS011;11207;59.512;18.050;2023-02-15T09:31:33;12.30;;;8.00;;
22080;SDS011;11207;59.512;18.050;2023-02-15T09:34:02;12.43;;;8.43;;
22080;SDS011;11207;59.512;18.050;2023-02-15T09:36:32;11.07;;;7.97;;
22080;SDS011;11207;59.512;18.050;2023-02-15T09:39:05;12.80;;;8.87;;
22080;SDS011;11207;59.512;18.050;2023-02-15T09:44:57;10.33;;;8.07;;
22080;SDS011;11207;59.512;18.050;2023-02-15T09:48:01;11.00;;;8.37;;
22080;SDS011;11207;59.512;18.050;2023-02-15T09:50:57;11.53;;;7.97;;
22080;SDS011;11207;59.512;18.050;2023-02-15T10:02:06;12.53;;;8.63;;
22080;SDS011;11207;59.512;18.050;2023-02-15T10:12:56;10.77;;;7.43;;
22080;SDS011;11207;59.512;18.050;2023-02-15T10:15:51;12.53;;;8.37;;
22080;SDS011;11207;59.512;18.050;2023-02-15T10:27:03;12.97;;;8.13;;
22080;SDS011;11207;59.512;18.050;2023-02-15T10:29:37;12.33;;;8.30;;
22080;SDS011;11207;59.512;18.050;2023-02-15T10:32:23;13.07;;;8.37;;
22080;SDS011;11207;59.512;18.050;2023-02-15T10:43:20;13.17;;;8.33;;
22080;SDS011;11207;59.512;18.050;2023-02-15T10:57:26;12.20;;;8.80;;
22080;SDS011;11207;59.512;18.050;2023-02-15T11:00:05;14.83;;;9.27;;
22080;SDS011;11207;59.512;18.050;2023-02-15T11:03:02;13.37;;;8.47;;
22080;SDS011;11207;59.512;18.050;2023-02-15T11:08:26;15.80;;;9.63;;
22080;SDS011;11207;59.512;18.050;2023-02-15T11:10:57;13.87;;;9.00;;
22080;SDS011;11207;59.512;18.050;2023-02-15T11:13:28;15.63;;;9.60;;
22080;SDS011;11207;59.512;18.050;2023-02-15T11:16:01;14.40;;;9.23;;
22080;SDS011;11207;59.512;18.050;2023-02-15T11:18:36;18.53;;;10.80;;
22080;SDS011;11207;59.512;18.050;2023-02-15T11:21:13;17.53;;;10.00;;
22080;SDS011;11207;59.512;18.050;2023-02-15T11:23:47;14.50;;;8.93;;
22080;SDS011;11207;59.512;18.050;2023-02-15T11:26:15;16.10;;;9.43;;
22080;SDS011;11207;59.512;18.050;2023-02-15T11:29:17;15.10;;;9.60;;
22080;SDS011;11207;59.512;18.050;2023-02-15T11:31:51;14.30;;;8.63;;
22080;SDS011;11207;59.512;18.050;2023-02-15T11:34:44;16.77;;;9.87;;
22080;SDS011;11207;59.512;18.050;2023-02-15T11:37:12;15.50;;;9.07;;
22080;SDS011;11207;59.512;18.050;2023-02-15T11:39:43;14.70;;;9.03;;
22080;SDS011;11207;59.512;18.050;2023-02-15T11:42:16;13.90;;;9.33;;
22080;SDS011;11207;59.512;18.050;2023-02-15T11:44:51;15.63;;;9.17;;
22080;SDS011;11207;59.512;18.050;2023-02-15T11:47:25;15.10;;;9.57;;
22080;SDS011;11207;59.512;18.050;2023-02-15T11:49:51;15.27;;;9.60;;
22080;SDS011;11207;59.512;18.050;2023-02-15T11:52:17;14.57;;;9.20;;
22080;SDS011;11207;59.512;18.050;2023-02-15T11:54:44;16.03;;;9.23;;
22080;SDS011;11207;59.512;18.050;2023-02-15T11:57:17;14.43;;;9.27;;
22080;SDS011;11207;59.512;18.050;2023-02-15T12:00:01;18.73;;;9.30;;
22080;SDS011;11207;59.512;18.050;2023-02-15T12:02:32;16.13;;;9.43;;
22080;SDS011;11207;59.512;18.050;2023-02-15T12:05:01;16.33;;;8.83;;
22080;SDS011;11207;59.512;18.050;2023-02-15T12:07:33;15.67;;;9.13;;
22080;SDS011;11207;59.512;18.050;2023-02-15T12:10:13;14.97;;;8.87;;
22080;SDS011;11207;59.512;18.050;2023-02-15T12:12:51;15.60;;;9.40;;
22080;SDS011;11207;59.512;18.050;2023-02-15T12:15:34;19.83;;;10.07;;
22080;SDS011;11207;59.512;18.050;2023-02-15T12:18:01;14.23;;;9.17;;
22080;SDS011;11207;59.512;18.050;2023-02-15T12:20:30;15.03;;;9.00;;
22080;SDS011;11207;59.512;18.050;2023-02-15T12:23:02;15.53;;;9.53;;
22080;SDS011;11207;59.512;18.050;2023-02-15T12:25:35;15.70;;;9.60;;
22080;SDS011;11207;59.512;18.050;2023-02-15T12:28:15;16.17;;;9.80;;
22080;SDS011;11207;59.512;18.050;2023-02-15T12:30:50;14.77;;;9.90;;
22080;SDS011;11207;59.512;18.050;2023-02-15T12:36:21;16.57;;;9.70;;
22080;SDS011;11207;59.512;18.050;2023-02-15T12:41:37;16.53;;;10.20;;
22080;SDS011;11207;59.512;18.050;2023-02-15T12:44:21;15.63;;;9.23;;
22080;SDS011;11207;59.512;18.050;2023-02-15T12:49:34;17.53;;;10.13;;
22080;SDS011;11207;59.512;18.050;2023-02-15T12:52:02;15.97;;;9.73;;
22080;SDS011;11207;59.512;18.050;2023-02-15T12:54:49;21.80;;;10.27;;
22080;SDS011;11207;59.512;18.050;2023-02-15T12:57:23;18.40;;;9.70;;
22080;SDS011;11207;59.512;18.050;2023-02-15T13:00:00;16.60;;;8.67;;
22080;SDS011;11207;59.512;18.050;2023-02-15T13:02:41;16.63;;;9.83;;
22080;SDS011;11207;59.512;18.050;2023-02-15T13:07:38;18.37;;;9.60;;
22080;SDS011;11207;59.512;18.050;2023-02-15T13:10:27;19.73;;;10.90;;
22080;SDS011;11207;59.512;18.050;2023-02-15T13:12:58;16.63;;;9.70;;
22080;SDS011;11207;59.512;18.050;2023-02-15T13:15:35;15.70;;;9.40;;
22080;SDS011;11207;59.512;18.050;2023-02-15T13:18:04;17.17;;;9.80;;
22080;SDS011;11207;59.512;18.050;2023-02-15T13:20:35;18.17;;;9.97;;
22080;SDS011;11207;59.512;18.050;2023-02-15T13:23:03;16.97;;;9.70;;
22080;SDS011;11207;59.512;18.050;2023-02-15T13:25:41;16.53;;;9.83;;
22080;SDS011;11207;59.512;18.050;2023-02-15T13:28:15;19.53;;;10.37;;
22080;SDS011;11207;59.512;18.050;2023-02-15T13:30:44;19.23;;;11.17;;
22080;SDS011;11207;59.512;18.050;2023-02-15T13:33:24;16.77;;;9.83;;
22080;SDS011;11207;59.512;18.050;2023-02-15T13:38:46;18.57;;;9.87;;
22080;SDS011;11207;59.512;18.050;2023-02-15T13:41:33;17.53;;;9.83;;
22080;SDS011;11207;59.512;18.050;2023-02-15T13:46:48;19.20;;;9.47;;
22080;SDS011;11207;59.512;18.050;2023-02-15T13:49:21;17.47;;;9.90;;
22080;SDS011;11207;59.512;18.050;2023-02-15T14:00:18;18.63;;;9.90;;
22080;SDS011;11207;59.512;18.050;2023-02-15T14:03:04;20.73;;;10.50;;
22080;SDS011;11207;59.512;18.050;2023-02-15T14:06:08;21.87;;;10.80;;
22080;SDS011;11207;59.512;18.050;2023-02-15T14:12:09;21.77;;;11.07;;
22080;SDS011;11207;59.512;18.050;2023-02-15T14:17:28;18.53;;;10.30;;
22080;SDS011;11207;59.512;18.050;2023-02-15T14:20:17;19.73;;;10.60;;
22080;SDS011;11207;59.512;18.050;2023-02-15T14:29:44;19.90;;;9.00;;
22080;SDS011;11207;59.512;18.050;2023-02-15T14:32:31;15.83;;;9.50;;
22080;SDS011;11207;59.512;18.050;2023-02-15T14:35:02;16.97;;;9.60;;
22080;SDS011;11207;59.512;18.050;2023-02-15T14:46:27;13.60;;;8.93;;
22080;SDS011;11207;59.512;18.050;2023-02-15T14:56:41;15.00;;;8.83;;
22080;SDS011;11207;59.512;18.050;2023-02-15T14:59:21;14.17;;;9.40;;
22080;SDS011;11207;59.512;18.050;2023-02-15T15:04:25;15.30;;;9.27;;
22080;SDS011;11207;59.512;18.050;2023-02-15T15:06:59;14.00;;;8.70;;
22080;SDS011;11207;59.512;18.050;2023-02-15T15:09:29;17.70;;;10.30;;
22080;SDS011;11207;59.512;18.050;2023-02-15T15:14:45;21.47;;;11.73;;
22080;SDS011;11207;59.512;18.050;2023-02-15T15:17:12;19.50;;;9.67;;
22080;SDS011;11207;59.512;18.050;2023-02-15T15:20:09;19.87;;;10.07;;
22080;SDS011;11207;59.512;18.050;2023-02-15T15:22:38;17.80;;;9.73;;
22080;SDS011;11207;59.512;18.050;2023-02-15T15:28:05;15.53;;;9.23;;
22080;SDS011;11207;59.512;18.050;2023-02-15T15:32:59;17.27;;;8.73;;
22080;SDS011;11207;59.512;18.050;2023-02-15T15:36:02;16.27;;;8.87;;
22080;SDS011;11207;59.512;18.050;2023-02-15T15:47:10;13.43;;;8.30;;
22080;SDS011;11207;59.512;18.050;2023-02-15T15:49:47;14.10;;;8.00;;
22080;SDS011;11207;59.512;18.050;2023-02-15T15:52:17;14.90;;;8.60;;
22080;SDS011;11207;59.512;18.050;2023-02-15T15:54:45;16.33;;;8.63;;
22080;SDS011;11207;59.512;18.050;2023-02-15T15:57:30;16.60;;;9.27;;
22080;SDS011;11207;59.512;18.050;2023-02-15T15:59:59;14.77;;;8.83;;
22080;SDS011;11207;59.512;18.050;2023-02-15T16:02:26;12.00;;;7.90;;
22080;SDS011;11207;59.512;18.050;2023-02-15T16:04:52;17.50;;;9.53;;
22080;SDS011;11207;59.512;18.050;2023-02-15T16:12:30;16.03;;;9.03;;
22080;SDS011;11207;59.512;18.050;2023-02-15T16:15:02;19.90;;;10.13;;
22080;SDS011;11207;59.512;18.050;2023-02-15T16:17:38;16.70;;;8.97;;
22080;SDS011;11207;59.512;18.050;2023-02-15T16:20:15;18.97;;;9.87;;
22080;SDS011;11207;59.512;18.050;2023-02-15T16:22:47;19.43;;;9.83;;
22080;SDS011;11207;59.512;18.050;2023-02-15T16:25:19;18.20;;;9.50;;
22080;SDS011;11207;59.512;18.050;2023-02-15T16:27:56;21.77;;;10.80;;
22080;SDS011;11207;59.512;18.050;2023-02-15T16:32:57;17.17;;;8.90;;
22080;SDS011;11207;59.512;18.050;2023-02-15T16:35:28;13.77;;;8.33;;
22080;SDS011;11207;59.512;18.050;2023-02-15T16:37:53;11.37;;;7.67;;
22080;SDS011;11207;59.512;18.050;2023-02-15T16:42:48;15.20;;;8.63;;
22080;SDS011;11207;59.512;18.050;2023-02-15T16:45:19;12.63;;;8.43;;
22080;SDS011;11207;59.512;18.050;2023-02-15T16:47:49;15.37;;;8.83;;
22080;SDS011;11207;59.512;18.050;2023-02-15T16:50:22;15.50;;;8.50;;
22080;SDS011;11207;59.512;18.050;2023-02-15T16:52:51;13.03;;;8.10;;
22080;SDS011;11207;59.512;18.050;2023-02-15T16:55:21;14.57;;;8.60;;
22080;SDS011;11207;59.512;18.050;2023-02-15T16:57:49;17.93;;;9.80;;
22080;SDS011;11207;59.512;18.050;2023-02-15T17:00:19;14.00;;;9.20;;
22080;SDS011;11207;59.512;18.050;2023-02-15T17:05:52;20.93;;;10.33;;
22080;SDS011;11207;59.512;18.050;2023-02-15T17:11:33;16.07;;;9.30;;
22080;SDS011;11207;59.512;18.050;2023-02-15T17:13:39;18.67;;;9.37;;
22080;SDS011;11207;59.512;18.050;2023-02-15T17:19:23;14.73;;;9.07;;
22080;SDS011;11207;59.512;18.050;2023-02-15T17:21:53;15.17;;;9.93;;
22080;SDS011;11207;59.512;18.050;2023-02-15T17:24:31;14.90;;;9.87;;
22080;SDS011;11207;59.512;18.050;2023-02-15T17:27:13;18.03;;;9.73;;
22080;SDS011;11207;59.512;18.050;2023-02-15T17:29:52;15.50;;;9.93;;
22080;SDS011;11207;59.512;18.050;2023-02-15T17:32:26;15.97;;;10.00;;